Latest Observation

25 Stations

15 Minute Data | America/Los_Angeles
as of 9/5/26 1:18 AM PDT
Station Date Time Temp (°F) RH (%) Dew Pt (°F) Wind Spd (mph) Wind Dir (°) Wind Gust (mph) Latest Rain (In) Daily Rain (In) Daily Min Temp (°F) Daily Max Temp (°F)
Rockpile Upper (Cooley) 9/5/26 0115 50.3   0.2 100   0 50.2   0.2 12.1   1.7 NNW | 338 17.1   0.9 0.00 0.00 49.9   0.1 50.6   0.2
Rockpile Lower (Cooley) 9/5/26 0100 53.9   0.1 87   3 50.0   0.9 2.7   1.3 NW | 305 4.5   2.3 0.00 0.00 53.8   0.1 54.3   0.6
Cloverdale-East (Ranch 83) 9/5/26 0115 51.0   0.0 - - 0.3   0.7 WSW | 248 1.9   0.0 0.00 0.00 50.6   0.4 51.4   0.2
Cloverdale-SE (Ranch 38) 9/5/26 0115 56.7   1.6 79   12 50.3   2.3 6.4   3.1 N | 351 9.8   4.9 0.00 0.00 56.5   1.8 56.8   1.2
Geyserville-North (Hoffman) 9/5/26 0115 51.5   3.1 90   2 48.6   3.8 0.0   1.8 N | 0 0.0   3.7 0.00 0.00 51.0   3.4 52.1   2.8
Geyserville (Ranch 3) 9/5/26 0115 51.7   2.8 88   12 48.4   6.1 0.5   2.0 SE | 137 1.8   2.2 0.00 0.00 51.3   3.1 52.1   2.7
Geyserville-East (Ranch 40) 9/5/26 0115 55.3   0.2 83   7 50.2   2.6 3.2   0.8 NNW | 342 6.2   2.2 0.00 0.00 55.0   0.4 55.5   0.2
Geyserville-South (Nervo Station) 9/5/26 0115 53.9   2.1 - - 0.1   0.9 SSW | 199 1.7   1.7 0.00 0.00 53.4   1.7 54.4   2.1
Peterson (Ranch 09) 9/5/26 0115 49.4   3.3 90   3 46.5   4.1 0.2   1.7 E | 97 0.9   2.4 0.00 0.00 49.1   3.3 49.7   3.3
Crazy Creek Ranch 9/5/26 0115 49.9   2.7 94   2 48.2   3.3 0.5   0.3 E | 91 1.8   1.1 0.00 0.00 49.9   2.7 50.6   2.7
Whitton Ranch (201e) 9/5/26 0115 46.4   6.2 95   4 45.1   5.1 0.3   0.1 W | 260 1.5   0.0 0.00 0.00 46.2   5.3 47.0   6.7
Lytton East (Shop Hill Bottom) 9/5/26 0115 50.3   3.8 93   1 48.4   4.0 0.8   1.8 NNE | 24 2.0   2.3 0.00 0.00 50.2   3.5 50.4   4.0
Lytton East (Hill 5) 9/5/26 0115 53.5   1.9 89   0 50.4   2.0 2.1   2.3 NE | 49 3.2   2.7 0.00 0.00 53.4   2.0 53.8   1.8
Lytton West Lower (Lew 6) 9/5/26 0115 50.7   1.4 95   5 49.4   2.6 1.6   0.4 NNE | 33 3.1   0.1 0.00 0.00 49.8   1.8 51.2   1.0
Lytton West Hill (23PS) 9/5/26 0115 53.9   2.0 89   3 50.8   2.8 0.8   1.4 NE | 45 2.4   1.1 0.00 0.00 53.3   2.4 54.2   1.8
Big River 9/5/26 0115 53.6   1.0 94   3 52.0   1.8 1.4   1.3 ENE | 61 3.1   2.5 0.00 0.00 53.5   0.9 53.8   1.1
Jimtown-North (Piccolo Ranch 15) 9/5/26 0115 50.3   1.2 100   0 50.2   1.3 0.4   0.2 N | 356 3.1   0.9 0.00 0.00 49.8   1.2 51.0   1.1
HWY 128/Chalk Hill Rd (Landslide) 9/5/26 0100 50.1   3.2 94   1 48.5   3.5 0.1   0.1 NNW | 340 1.1   1.1 0.00 0.00 47.9   5.0 79.3   8.7
N Chalk Hill Rd (Ranch 63) 9/5/26 0115 48.8   2.7 92   2 46.7   3.1 0.1   0.0 SW | 232 0.8   0.0 0.00 0.00 48.6   2.7 49.0   2.6
Newman Knights Valley 8/18/26 0015 56.2   1.8 85   4 51.7   0.4 0.8   3.5 NE | 55 2.3   5.8 0.00 0.00 55.0   1.2 88.3   0.6
Knights Valley (Bavarian Lion) 9/5/26 0115 46.9   5.3 95   1 45.6   5.6 0.4   0.9 SSE | 149 1.8   0.7 0.00 0.00 46.8   5.1 47.1   5.6
Red Tail 9/5/26 0115 50.1   3.1 91   2 47.5   3.6 1.5   0.4 ENE | 76 2.8   0.4 0.00 0.00 49.8   3.3 50.4   2.9
Franz Valley (Stornetta) 9/5/26 0115 48.0   6.1 94   5 46.3   7.4 0.1   0.0 SE | 145 0.7   1.0 0.00 0.00 47.8   6.1 48.2   6.2
Upper Dry Creek Valley 9/5/26 0115 58.5   6.1 76   19 50.8   0.1 2.9   2.4 WNW | 301 5.9   4.0 0.00 0.00 58.3   5.9 58.6   6.0
Lower Dry Creek Valley 9/5/26 0100 49.9   4.0 100   0 49.9   4.0 0.0   0.0 N | 0 0.0   0.0 0.00 0.00 47.5   6.2 78.1   5.7
Max     58.5 100 52.0 12.1 - 17.1 0.00 0.00 58.3 79.3
Avg     51.4 91 48.8 1.6 - 3.2 0.00 - - -
Min     46.4 76 45.1 0.0 - 0.0 0.00 0.00 46.2 47.0